Airport View

Enter AWOS ICAO identifier for current METAR.

ex. KFNL

KJQF 191850Z 25005KT 10SM SCT026 BKN048 27/22 A2985

19 Jun 2019 19:22

Frequency: 133.675

Phone: 704-785-2145

Other Area AWOS: KCLT - KRUQ - KEQY - KIPJ

TAF KCLT 191720Z 1918/2024 22009G16KT P6SM VCSH SCT025 BKN040 TEMPO 1920/1924 4SM TSRA BKN025CB FM200200 22006KT P6SM SCT080 FM201000 23007KT P6SM SCT020 BKN080 FM201400 24010G17KT P6SM VCSH BKN035 PROB30 2015/2021 VRB15G25KT 3SM TSRA OVC015CB